createdAt,value
2019-03-19T00:01:59.387Z,101204.59
2019-03-19T00:04:31.134Z,101203.28
2019-03-19T00:07:02.781Z,101202.84
2019-03-19T00:09:34.401Z,101203.70
2019-03-19T00:12:06.171Z,101206.70
2019-03-19T00:14:37.788Z,101213.22
2019-03-19T00:17:10.128Z,101210.22
2019-03-19T00:19:41.804Z,101214.57
2019-03-19T00:22:13.376Z,101216.31
2019-03-19T00:24:45.309Z,101220.66
2019-03-19T00:27:16.928Z,101220.65
2019-03-19T00:29:49.032Z,101219.73
2019-03-19T00:32:21.216Z,101224.94
2019-03-19T00:34:52.973Z,101222.33
2019-03-19T00:37:24.658Z,101222.33
2019-03-19T00:39:56.259Z,101225.38
2019-03-19T00:42:27.949Z,101223.69
2019-03-19T00:44:59.585Z,101218.09
2019-03-19T00:47:31.681Z,101216.84
2019-03-19T00:50:03.302Z,101218.58
2019-03-19T00:52:35.074Z,101212.94
2019-03-19T00:55:07.243Z,101216.80
2019-03-19T00:57:39.187Z,101219.39
2019-03-19T01:00:11.411Z,101215.44
2019-03-19T01:02:43.504Z,101211.57
2019-03-19T01:05:15.208Z,101215.49
2019-03-19T01:07:47.154Z,101212.44
2019-03-19T01:10:19.125Z,101221.52
2019-03-19T01:12:50.702Z,101219.73
2019-03-19T01:15:22.404Z,101222.34
2019-03-19T01:17:54.391Z,101221.89
2019-03-19T01:20:26.033Z,101224.03
2019-03-19T01:22:57.606Z,101216.20
2019-03-19T01:25:29.363Z,101218.80
2019-03-19T01:28:01.399Z,101222.72
2019-03-19T01:30:33.399Z,101219.63
2019-03-19T01:33:04.986Z,101224.84
2019-03-19T01:35:37.247Z,101222.66
2019-03-19T01:38:08.839Z,101222.66
2019-03-19T01:40:40.458Z,101218.33
2019-03-19T01:43:12.079Z,101217.94
2019-03-19T01:45:43.711Z,101209.25
2019-03-19T01:48:15.400Z,101203.65
2019-03-19T01:50:47.677Z,101216.59
2019-03-19T01:53:19.255Z,101211.36
2019-03-19T01:55:51.152Z,101213.54
2019-03-19T01:58:23.011Z,101217.07
2019-03-19T02:00:54.697Z,101223.25
2019-03-19T02:03:27.860Z,101223.78
2019-03-19T02:06:00.147Z,101227.75
2019-03-19T02:08:31.826Z,101221.71
2019-03-19T02:11:03.838Z,101225.61
2019-03-19T02:13:35.439Z,101230.84
2019-03-19T02:16:07.077Z,101232.22
2019-03-19T02:18:38.713Z,101224.84
2019-03-19T02:21:11.240Z,101221.84
2019-03-19T02:23:42.827Z,101224.88
2019-03-19T02:26:16.680Z,101231.36
2019-03-19T02:28:48.212Z,101230.92
2019-03-19T02:31:20.157Z,101224.41
2019-03-19T02:33:52.022Z,101224.84
2019-03-19T02:36:24.328Z,101230.91
2019-03-19T02:38:55.887Z,101234.83
2019-03-19T02:41:27.489Z,101229.66
2019-03-19T02:43:59.072Z,101246.19
2019-03-19T02:46:30.924Z,101250.58
2019-03-19T02:49:02.963Z,101251.08
2019-03-19T02:51:35.403Z,101254.62
2019-03-19T02:54:07.335Z,101251.14
2019-03-19T02:56:39.095Z,101247.67
2019-03-19T02:59:10.688Z,101242.47
2019-03-19T03:01:42.785Z,101247.20
2019-03-19T03:04:14.359Z,101253.28
2019-03-19T03:06:47.041Z,101254.58
2019-03-19T03:09:18.668Z,101249.41
2019-03-19T03:11:50.464Z,101252.91
2019-03-19T03:14:22.101Z,101256.41
2019-03-19T03:16:53.669Z,101252.11
2019-03-19T03:19:25.377Z,101265.98
2019-03-19T03:21:57.718Z,101273.38
2019-03-19T03:24:29.343Z,101279.05
2019-03-19T03:27:02.461Z,101278.66
2019-03-19T03:29:34.557Z,101279.55
2019-03-19T03:32:06.483Z,101282.58
2019-03-19T03:34:38.194Z,101277.35
2019-03-19T03:37:11.047Z,101279.95
2019-03-19T03:39:43.702Z,101284.70
2019-03-19T03:42:15.341Z,101285.59
2019-03-19T03:44:47.462Z,101292.14
2019-03-19T03:47:19.104Z,101303.87
2019-03-19T03:49:50.697Z,101300.44
2019-03-19T03:52:22.620Z,101306.06
2019-03-19T03:54:55.188Z,101307.39
2019-03-19T03:57:27.082Z,101306.08
2019-03-19T03:59:58.713Z,101309.97
2019-03-19T04:02:30.424Z,101313.88
2019-03-19T04:05:02.145Z,101315.63
2019-03-19T04:07:33.716Z,101324.29
2019-03-19T04:10:06.992Z,101324.29
2019-03-19T04:12:38.964Z,101329.46
2019-03-19T04:15:14.164Z,101326.89
2019-03-19T04:17:45.783Z,101332.09
2019-03-19T04:20:17.525Z,101328.59
2019-03-19T04:22:49.099Z,101338.13
2019-03-19T04:25:21.400Z,101339.02
2019-03-19T04:27:53.048Z,101333.84
2019-03-19T04:30:25.180Z,101345.95
2019-03-19T04:32:57.276Z,101334.70
2019-03-19T04:35:29.198Z,101355.94
2019-03-19T04:38:00.807Z,101368.06
2019-03-19T04:40:33.099Z,101367.62
2019-03-19T04:43:04.724Z,101364.58
2019-03-19T04:45:36.293Z,101375.00
2019-03-19T04:48:07.910Z,101378.88
2019-03-19T04:50:39.635Z,101387.55
2019-03-19T04:53:11.502Z,101381.06
2019-03-19T04:55:43.826Z,101386.27
2019-03-19T04:58:15.571Z,101389.72
2019-03-19T05:00:47.215Z,101384.95
2019-03-19T05:03:18.971Z,101397.95
2019-03-19T05:05:50.561Z,101397.95
2019-03-19T05:08:22.355Z,101395.77
2019-03-19T05:10:53.977Z,101399.68
2019-03-19T05:13:26.457Z,101397.95
2019-03-19T05:15:58.198Z,101400.53
2019-03-19T05:18:31.401Z,101408.33
2019-03-19T05:21:03.191Z,101408.34
2019-03-19T05:23:35.244Z,101409.19
2019-03-19T05:26:07.052Z,101413.54
2019-03-19T05:28:39.415Z,101417.45
2019-03-19T05:31:11.631Z,101416.16
2019-03-19T05:33:43.255Z,101421.34
2019-03-19T05:36:14.895Z,101420.47
2019-03-19T05:38:46.493Z,101421.34
2019-03-19T05:41:18.223Z,101419.59
2019-03-19T05:43:50.534Z,101424.80
2019-03-19T05:46:22.639Z,101425.23
2019-03-19T05:48:54.290Z,101430.88
2019-03-19T05:51:25.895Z,101430.43
2019-03-19T05:53:57.472Z,101433.91
2019-03-19T05:56:29.088Z,101420.92
2019-03-19T05:59:01.563Z,101430.42
2019-03-19T06:01:33.325Z,101436.50
2019-03-19T06:04:04.952Z,101439.97
2019-03-19T06:06:36.705Z,101452.53
2019-03-19T06:09:10.066Z,101454.27
2019-03-19T06:11:41.699Z,101465.54
2019-03-19T06:14:13.885Z,101463.36
2019-03-19T06:16:45.574Z,101465.11
2019-03-19T06:19:17.378Z,101464.22
2019-03-19T06:21:49.025Z,101457.29
2019-03-19T06:24:20.908Z,101469.00
2019-03-19T06:26:53.046Z,101470.31
2019-03-19T06:29:25.382Z,101472.03
2019-03-19T06:31:57.488Z,101469.02
2019-03-19T06:34:29.283Z,101473.34
2019-03-19T06:37:00.923Z,101478.53
2019-03-19T06:39:32.613Z,101483.30
2019-03-19T06:42:04.236Z,101480.72
2019-03-19T06:44:36.610Z,101477.22
2019-03-19T06:47:08.329Z,101486.78
2019-03-19T06:49:39.951Z,101492.83
2019-03-19T06:52:11.744Z,101487.20
2019-03-19T06:54:43.634Z,101487.60
2019-03-19T06:57:15.348Z,101494.09
2019-03-19T06:59:47.587Z,101489.32
2019-03-19T07:02:19.290Z,101487.14
2019-03-19T07:04:51.276Z,101495.38
2019-03-19T07:07:22.862Z,101497.09
2019-03-19T07:09:54.590Z,101491.91
2019-03-19T07:12:27.833Z,101501.84
2019-03-19T07:14:59.435Z,101506.18
2019-03-19T07:17:31.538Z,101504.00
2019-03-19T07:20:03.246Z,101509.59
2019-03-19T07:22:34.917Z,101510.02
2019-03-19T07:25:06.945Z,101512.59
2019-03-19T07:27:38.704Z,101513.91
2019-03-19T07:30:14.519Z,101521.67
2019-03-19T07:32:46.888Z,101520.34
2019-03-19T07:35:18.469Z,101532.05
2019-03-19T07:37:50.202Z,101528.14
2019-03-19T07:40:21.817Z,101531.59
2019-03-19T07:42:53.491Z,101533.73
2019-03-19T07:45:25.463Z,101529.39
2019-03-19T07:47:58.357Z,101530.66
2019-03-19T07:50:29.955Z,101539.36
2019-03-19T07:53:01.625Z,101532.37
2019-03-19T07:55:33.288Z,101539.30
2019-03-19T07:58:05.421Z,101535.82
2019-03-19T08:00:37.026Z,101541.04
2019-03-19T08:03:16.064Z,101542.34
2019-03-19T08:05:42.976Z,101548.83
2019-03-19T08:08:15.090Z,101547.94
2019-03-19T08:10:47.028Z,101554.86
2019-03-19T08:13:18.647Z,101553.55
2019-03-19T08:15:50.453Z,101553.92
2019-03-19T08:18:22.746Z,101561.28
2019-03-19T08:20:54.626Z,101570.34
2019-03-19T08:23:26.256Z,101574.17
2019-03-19T08:25:58.157Z,101564.96
2019-03-19T08:28:30.097Z,101571.88
2019-03-19T08:31:01.939Z,101571.88
2019-03-19T08:33:34.318Z,101572.28
2019-03-19T08:36:09.569Z,101564.44
2019-03-19T08:38:39.336Z,101565.70
2019-03-19T08:41:10.937Z,101568.27
2019-03-19T08:43:43.145Z,101566.97
2019-03-19T08:46:14.787Z,101572.62
2019-03-19T08:48:47.113Z,101569.53
2019-03-19T08:51:18.708Z,101575.14
2019-03-19T08:53:50.577Z,101575.53
2019-03-19T08:56:22.224Z,101574.18
2019-03-19T08:58:53.967Z,101574.16
2019-03-19T09:01:25.599Z,101580.16
2019-03-19T09:03:58.088Z,101579.23
2019-03-19T09:06:29.715Z,101576.11
2019-03-19T09:09:01.688Z,101578.67
2019-03-19T09:11:33.296Z,101575.58
2019-03-19T09:14:04.957Z,101579.88
2019-03-19T09:16:36.909Z,101573.73
2019-03-19T09:19:09.441Z,101576.77
2019-03-19T09:21:41.217Z,101575.84
2019-03-19T09:24:12.867Z,101582.75
2019-03-19T09:26:44.749Z,101587.91
2019-03-19T09:29:17.352Z,101590.91
2019-03-19T09:31:49.435Z,101583.05
2019-03-19T09:34:21.101Z,101578.19
2019-03-19T09:36:57.417Z,101588.95
2019-03-19T09:39:26.772Z,101586.22
2019-03-19T09:41:58.554Z,101589.13
2019-03-19T09:44:30.194Z,101588.63
2019-03-19T09:47:01.899Z,101595.97
2019-03-19T09:49:33.479Z,101598.99
2019-03-19T09:52:05.784Z,101597.64
2019-03-19T09:54:37.481Z,101605.84
2019-03-19T09:57:09.425Z,101604.89
2019-03-19T09:59:43.613Z,101603.45
2019-03-19T10:02:14.570Z,101612.50
2019-03-19T10:04:46.198Z,101608.88
2019-03-19T10:07:18.814Z,101609.25
2019-03-19T10:09:50.444Z,101598.63
2019-03-19T10:12:22.336Z,101601.07
2019-03-19T10:14:53.956Z,101603.53
2019-03-19T10:17:25.614Z,101596.84
2019-03-19T10:19:57.286Z,101601.07
2019-03-19T10:22:29.568Z,101596.22
2019-03-19T10:25:01.208Z,101598.34
2019-03-19T10:27:33.192Z,101600.00
2019-03-19T10:30:07.308Z,101598.16
2019-03-19T10:32:39.404Z,101592.87
2019-03-19T10:35:11.430Z,101603.66
2019-03-19T10:37:43.790Z,101605.31
2019-03-19T10:40:15.730Z,101600.80
2019-03-19T10:42:47.481Z,101601.59
2019-03-19T10:45:19.226Z,101598.00
2019-03-19T10:47:50.861Z,101599.27
2019-03-19T10:50:25.195Z,101599.97
2019-03-19T10:52:57.678Z,101600.54
2019-03-19T10:55:29.616Z,101596.78
2019-03-19T10:58:10.707Z,101598.79
2019-03-19T11:00:35.005Z,101595.95
2019-03-19T11:03:07.255Z,101600.16
2019-03-19T11:05:38.977Z,101600.42
2019-03-19T11:08:10.630Z,101596.74
2019-03-19T11:10:42.803Z,101600.96
2019-03-19T11:13:14.786Z,101600.48
2019-03-19T11:15:46.432Z,101598.70
2019-03-19T11:18:18.339Z,101596.50
2019-03-19T11:20:50.355Z,101599.15
2019-03-19T11:23:21.987Z,101593.56
2019-03-19T11:25:54.809Z,101596.94
2019-03-19T11:28:26.702Z,101594.88
2019-03-19T11:30:58.863Z,101594.50
2019-03-19T11:33:30.671Z,101591.43
2019-03-19T11:36:02.374Z,101590.84
2019-03-19T11:38:34.282Z,101582.44
2019-03-19T11:41:09.533Z,101591.88
2019-03-19T11:43:41.436Z,101590.01
2019-03-19T11:46:13.165Z,101587.59
2019-03-19T11:48:44.857Z,101590.29
2019-03-19T11:51:16.616Z,101593.94
2019-03-19T11:53:48.275Z,101594.14
2019-03-19T11:56:20.590Z,101585.67
2019-03-19T11:58:52.478Z,101590.33
2019-03-19T12:01:24.133Z,101593.06
2019-03-19T12:03:57.646Z,101594.88
2019-03-19T12:06:29.267Z,101589.27
2019-03-19T12:09:01.003Z,101594.50
2019-03-19T12:11:33.290Z,101586.06
2019-03-19T12:14:05.029Z,101590.91
2019-03-19T12:16:36.676Z,101585.67
2019-03-19T12:19:08.386Z,101586.19
2019-03-19T12:21:40.101Z,101577.11
2019-03-19T12:24:11.891Z,101577.62
2019-03-19T12:26:45.464Z,101583.00
2019-03-19T12:29:17.459Z,101578.64
2019-03-19T12:31:49.548Z,101580.46
2019-03-19T12:34:21.251Z,101587.06
2019-03-19T12:36:53.015Z,101584.97
2019-03-19T12:39:24.863Z,101587.19
2019-03-19T12:41:57.133Z,101580.05
2019-03-19T12:44:29.000Z,101578.12
2019-03-19T12:47:00.790Z,101584.06
2019-03-19T12:49:32.465Z,101579.49
2019-03-19T12:52:04.117Z,101570.13
2019-03-19T12:54:37.818Z,101565.99
2019-03-19T12:57:10.074Z,101565.38
2019-03-19T12:59:42.658Z,101550.81
2019-03-19T13:02:14.409Z,101557.23
2019-03-19T13:04:46.435Z,101555.05
2019-03-19T13:07:18.209Z,101559.05
2019-03-19T13:09:50.021Z,101552.61
2019-03-19T13:12:21.988Z,101565.06
2019-03-19T13:14:54.490Z,101564.80
2019-03-19T13:17:26.145Z,101570.25
2019-03-19T13:19:57.843Z,101569.87
2019-03-19T13:22:29.592Z,101568.08
2019-03-19T13:25:01.233Z,101566.60
2019-03-19T13:27:32.852Z,101567.31
2019-03-19T13:30:05.683Z,101570.26
2019-03-19T13:32:42.122Z,101568.02
2019-03-19T13:35:13.939Z,101573.66
2019-03-19T13:37:47.136Z,101571.83
2019-03-19T13:40:18.977Z,101558.09
2019-03-19T13:42:50.617Z,101554.42
2019-03-19T13:45:22.952Z,101557.89
2019-03-19T13:47:56.058Z,101566.06
2019-03-19T13:50:27.873Z,101558.91
2019-03-19T13:52:59.470Z,101563.20
2019-03-19T13:55:31.152Z,101560.56
2019-03-19T13:58:02.835Z,101559.25
2019-03-19T14:00:35.297Z,101559.22
2019-03-19T14:03:07.061Z,101557.91
2019-03-19T14:05:38.795Z,101563.20
2019-03-19T14:08:10.434Z,101567.28
2019-03-19T14:10:42.186Z,101563.92
2019-03-19T14:13:14.373Z,101561.39
2019-03-19T14:15:46.731Z,101568.00
2019-03-19T14:18:18.681Z,101573.30
2019-03-19T14:20:51.079Z,101572.08
2019-03-19T14:23:23.047Z,101569.94
2019-03-19T14:25:55.042Z,101568.27
2019-03-19T14:28:27.068Z,101574.01
2019-03-19T14:31:08.019Z,101574.59
2019-03-19T14:33:30.843Z,101582.09
2019-03-19T14:36:02.735Z,101579.56
2019-03-19T14:38:34.375Z,101587.09
2019-03-19T14:41:06.072Z,101581.87
2019-03-19T14:43:38.278Z,101582.77
2019-03-19T14:46:11.165Z,101580.14
2019-03-19T14:48:42.854Z,101572.70
2019-03-19T14:51:14.622Z,101576.19
2019-03-19T14:53:46.545Z,101569.62
2019-03-19T14:56:18.185Z,101576.58
2019-03-19T14:58:49.999Z,101569.52
2019-03-19T15:01:22.029Z,101570.39
2019-03-19T15:03:54.123Z,101564.20
2019-03-19T15:06:25.748Z,101566.80
2019-03-19T15:08:59.397Z,101564.55
2019-03-19T15:11:31.064Z,101566.38
2019-03-19T15:14:02.815Z,101563.30
2019-03-19T15:16:34.442Z,101561.05
2019-03-19T15:19:06.529Z,101563.17
2019-03-19T15:21:38.336Z,101565.77
2019-03-19T15:24:10.167Z,101556.08
2019-03-19T15:26:41.809Z,101558.39
2019-03-19T15:29:13.755Z,101568.11
2019-03-19T15:31:45.790Z,101572.12
2019-03-19T15:34:18.220Z,101573.85
2019-03-19T15:36:49.843Z,101569.48
2019-03-19T15:39:21.513Z,101575.65
2019-03-19T15:41:53.497Z,101570.48
2019-03-19T15:44:25.156Z,101567.11
2019-03-19T15:46:56.852Z,101575.90
2019-03-19T15:49:37.840Z,101572.91
2019-03-19T15:52:02.954Z,101575.55
2019-03-19T15:54:34.743Z,101573.34
2019-03-19T15:57:06.537Z,101567.66
2019-03-19T15:59:38.490Z,101571.63
2019-03-19T16:02:10.216Z,101576.86
2019-03-19T16:04:42.587Z,101583.44
2019-03-19T16:07:14.296Z,101579.55
2019-03-19T16:09:46.219Z,101583.59
2019-03-19T16:12:17.999Z,101588.94
2019-03-19T16:14:49.656Z,101592.53
2019-03-19T16:17:21.467Z,101593.48
2019-03-19T16:19:53.977Z,101603.16
2019-03-19T16:22:26.118Z,101602.81
2019-03-19T16:24:58.050Z,101605.50
2019-03-19T16:27:29.832Z,101615.23
2019-03-19T16:30:01.488Z,101614.39
2019-03-19T16:32:33.522Z,101620.97
2019-03-19T16:35:05.769Z,101618.42
2019-03-19T16:37:38.219Z,101614.20
2019-03-19T16:40:15.006Z,101629.92
2019-03-19T16:42:47.133Z,101637.80
2019-03-19T16:45:19.034Z,101639.17
2019-03-19T16:47:50.722Z,101634.42
2019-03-19T16:50:22.733Z,101641.02
2019-03-19T16:52:55.443Z,101641.94
2019-03-19T16:55:27.245Z,101645.10
2019-03-19T16:57:58.961Z,101649.94
2019-03-19T17:00:30.566Z,101650.86
2019-03-19T17:03:02.525Z,101646.97
2019-03-19T17:05:35.327Z,101657.95
2019-03-19T17:08:07.716Z,101661.95
2019-03-19T17:10:39.695Z,101658.98
2019-03-19T17:13:11.713Z,101667.34
2019-03-19T17:15:43.502Z,101670.88
2019-03-19T17:18:15.210Z,101673.13
2019-03-19T17:20:47.082Z,101679.76
2019-03-19T17:23:19.817Z,101673.36
2019-03-19T17:25:51.515Z,101686.11
2019-03-19T17:28:23.213Z,101686.27
2019-03-19T17:30:54.970Z,101678.95
2019-03-19T17:33:27.181Z,101686.53
2019-03-19T17:35:58.825Z,101689.78
2019-03-19T17:38:31.844Z,101690.31
2019-03-19T17:41:03.458Z,101691.73
2019-03-19T17:43:35.334Z,101699.81
2019-03-19T17:46:07.004Z,101693.50
2019-03-19T17:48:38.761Z,101702.03
2019-03-19T17:51:10.373Z,101705.28
2019-03-19T17:53:42.850Z,101706.79
2019-03-19T17:56:14.554Z,101715.24
2019-03-19T17:58:46.564Z,101718.02
2019-03-19T18:01:18.227Z,101715.94
2019-03-19T18:03:49.968Z,101721.70
2019-03-19T18:06:22.560Z,101723.61
2019-03-19T18:08:54.908Z,101729.81
2019-03-19T18:11:26.534Z,101734.75
2019-03-19T18:13:58.255Z,101734.84
2019-03-19T18:16:30.335Z,101740.66
2019-03-19T18:19:02.156Z,101742.94
2019-03-19T18:21:33.982Z,101753.12
2019-03-19T18:24:06.407Z,101756.33
2019-03-19T18:26:38.141Z,101758.64
2019-03-19T18:29:10.677Z,101760.02
2019-03-19T18:31:41.328Z,101757.02
2019-03-19T18:34:10.753Z,101761.87
2019-03-19T18:36:42.864Z,101760.61
2019-03-19T18:39:14.667Z,101762.37
2019-03-19T18:41:50.185Z,101768.96
2019-03-19T18:44:21.470Z,101763.34
2019-03-19T18:46:53.204Z,101767.79
2019-03-19T18:49:24.916Z,101770.41
2019-03-19T18:51:56.696Z,101777.00
2019-03-19T18:54:28.863Z,101771.81
2019-03-19T18:57:01.208Z,101779.66
2019-03-19T18:59:33.072Z,101780.14
2019-03-19T19:02:04.757Z,101781.48
2019-03-19T19:04:36.566Z,101783.67
2019-03-19T19:07:08.651Z,101782.41
2019-03-19T19:09:40.399Z,101789.37
2019-03-19T19:12:12.775Z,101788.11
2019-03-19T19:14:44.429Z,101792.06
2019-03-19T19:17:16.316Z,101788.19
2019-03-19T19:19:48.147Z,101801.30
2019-03-19T19:22:19.961Z,101803.57
2019-03-19T19:24:51.605Z,101807.95
2019-03-19T19:27:24.387Z,101804.97
2019-03-19T19:29:56.228Z,101808.47
2019-03-19T19:32:28.137Z,101812.41
2019-03-19T19:35:00.003Z,101813.75
2019-03-19T19:37:31.907Z,101816.79
2019-03-19T19:40:03.576Z,101819.84
2019-03-19T19:42:36.062Z,101821.98
2019-03-19T19:45:08.409Z,101823.30
2019-03-19T19:47:40.097Z,101828.52
2019-03-19T19:50:13.983Z,101817.20
2019-03-19T19:52:45.776Z,101821.60
2019-03-19T19:55:17.606Z,101825.10
2019-03-19T19:57:49.628Z,101829.50
2019-03-19T20:00:22.756Z,101827.80
2019-03-19T20:02:54.503Z,101822.58
2019-03-19T20:05:26.307Z,101832.17
2019-03-19T20:07:58.052Z,101830.88
2019-03-19T20:10:29.762Z,101836.09
2019-03-19T20:13:01.423Z,101832.64
2019-03-19T20:20:36.015Z,101838.72
2019-03-19T20:23:08.097Z,101841.78
2019-03-19T20:25:39.876Z,101846.56
2019-03-19T20:28:11.537Z,101846.13
2019-03-19T20:30:43.604Z,101853.09
2019-03-19T20:33:24.421Z,101856.13
2019-03-19T20:35:49.080Z,101863.95
2019-03-19T20:38:20.846Z,101868.30
2019-03-19T20:40:52.713Z,101869.16
2019-03-19T20:43:24.375Z,101864.78
2019-03-19T20:51:01.043Z,101871.30
2019-03-19T20:53:32.988Z,101880.84
2019-03-19T20:56:05.059Z,101887.33
2019-03-19T20:58:43.359Z,101885.16
2019-03-19T21:01:11.011Z,101892.94
2019-03-19T21:03:42.704Z,101898.55
2019-03-19T21:06:14.625Z,101900.27
2019-03-19T21:08:46.357Z,101895.45
2019-03-19T21:11:18.153Z,101905.02
2019-03-19T21:13:50.126Z,101904.98
2019-03-19T21:16:22.651Z,101911.91
2019-03-19T21:18:54.307Z,101909.72
2019-03-19T21:21:26.081Z,101908.86
2019-03-19T21:23:57.822Z,101905.40
2019-03-19T21:26:29.862Z,101913.64
2019-03-19T21:29:01.793Z,101914.05
2019-03-19T21:36:32.250Z,101925.22
2019-03-19T21:39:05.298Z,101919.16
2019-03-19T21:41:36.965Z,101932.58
2019-03-19T21:44:09.242Z,101929.93
2019-03-19T21:46:41.163Z,101927.28
2019-03-19T21:49:12.985Z,101933.34
2019-03-19T21:51:44.664Z,101936.36
2019-03-19T21:54:16.627Z,101933.75
2019-03-19T21:56:48.299Z,101933.29
2019-03-19T21:59:20.694Z,101932.86
2019-03-19T22:01:52.395Z,101940.64
2019-03-19T22:04:24.145Z,101940.58
2019-03-19T22:06:55.802Z,101947.44
2019-03-19T22:09:27.711Z,101952.11
2019-03-19T22:11:59.495Z,101960.72
2019-03-19T22:14:31.847Z,101952.89
2019-03-19T22:17:03.714Z,101967.17
2019-03-19T22:19:35.415Z,101963.73
2019-03-19T22:22:07.148Z,101964.19
2019-03-19T22:24:38.866Z,101966.38
2019-03-19T22:27:11.287Z,101971.19
2019-03-19T22:29:43.833Z,101971.22
2019-03-19T22:32:16.952Z,101969.52
2019-03-19T22:34:48.667Z,101973.42
2019-03-19T22:37:20.331Z,101973.81
2019-03-19T22:39:52.186Z,101970.70
2019-03-19T22:42:23.855Z,101974.97
2019-03-19T22:44:56.130Z,101974.44
2019-03-19T22:47:27.814Z,101978.25
2019-03-19T22:49:59.574Z,101978.59
2019-03-19T22:52:31.283Z,101981.17
2019-03-19T22:55:03.053Z,101983.29
2019-03-19T22:57:34.933Z,101983.67
2019-03-19T23:00:12.744Z,101987.09
2019-03-19T23:02:44.513Z,101985.72
2019-03-19T23:05:17.753Z,101990.39
2019-03-19T23:07:49.814Z,101986.39
2019-03-19T23:10:21.731Z,101990.63
2019-03-19T23:12:53.444Z,101994.86
2019-03-19T23:15:26.046Z,101998.67
2019-03-19T23:17:58.148Z,101996.86
2019-03-19T23:20:30.710Z,101999.40
2019-03-19T23:23:02.656Z,101996.77
2019-03-19T23:25:34.378Z,101993.81
2019-03-19T23:28:06.160Z,101998.22
2019-03-19T23:30:37.815Z,101994.86
2019-03-19T23:33:10.794Z,101991.42
2019-03-19T23:35:42.466Z,101994.44
2019-03-19T23:38:14.120Z,101998.30
2019-03-19T23:40:45.746Z,102009.87
2019-03-19T23:43:17.403Z,102007.16
2019-03-19T23:45:49.064Z,102009.72
2019-03-19T23:48:21.312Z,102005.31
2019-03-19T23:50:53.283Z,102015.21
2019-03-19T23:53:24.911Z,102011.65
2019-03-19T23:55:56.708Z,102021.12
2019-03-19T23:58:28.365Z,102022.34
